KSVC  Grant County Airport

Add Bookmark

Silver City, New Mexico, United States

Status Useage IATA
Operational Public SVC
Latitude Longitude
32° 38' 11" N 108° 9' 22" W
32.636547 -108.156385
Local (DST -6) UTC (GMT -7)
Jul 31, 2014 07:28 Jul 31, 2014 13:28
Sunrise-Sunset Local UTC
Begin Civil Twilight 05:58 11:58
Sunrise 06:25 12:25
Sunset 08:12 02:12
End Civil Twilight 08:39 02:39

Current Weather

METAR Observed VFR
KSVC 311255Z AUTO 09006KT 10SM FEW015 SCT049 BKN070 19/15 A3031 Thu, Jul 31, 2014 @ 12:55 UTC
(33 Minutes ago)
Visual Flight Rules

Decoded METAR

Wind Visibility Clouds Conditions
090° at 6 knots (7 mph) 10 statute miles
  • Few at 1,500' AGL
  • Scattered at 4,900' AGL
  • Broken at 7,000' AGL
  • No significant weather
Temperatures Readings Precipitation
Current Temp 19°C (66°F)
Dewpoint 15°C (59°F)
Humidity 78%
Altimeter 30.31"Hg
Sea Level Pressure 1026mb
Field Elevation 5443.01'
Current Rain 0.01"

Additional weather within a 50nm radius of KSVC

Map ICAO Location
KDMN 31.5nm S (135°)
KLSB 32.6nm S (236°)

24 Hour Weather History

Loading
-

24 Hour Weather Graphs

Loading
-

CheckWX.com is intended as a tool to help pilots better visualize weather data. It is not intended as a substitute for an official weather briefing obtained from a Flight Service Station. CheckWX.com does not meet the FAA requirements for an official pre-flight weather briefing. Therefore, it's important that pilots still call and obtain an official FSS pre-flight weather briefing.